createdAt,value
2022-08-04T00:00:15.774Z,13.40
2022-08-04T00:03:03.139Z,32.78
2022-08-04T00:06:08.643Z,17.70
2022-08-04T00:08:46.897Z,6.88
2022-08-04T00:11:27.049Z,9.10
2022-08-04T00:14:03.184Z,8.68
2022-08-04T00:16:38.485Z,7.00
2022-08-04T00:19:32.766Z,5.18
2022-08-04T00:22:04.995Z,4.78
2022-08-04T00:24:36.139Z,5.53
2022-08-04T00:27:04.802Z,15.77
2022-08-04T00:29:33.225Z,11.88
2022-08-04T00:32:03.592Z,9.45
2022-08-04T00:34:34.550Z,9.70
2022-08-04T00:37:02.969Z,7.63
2022-08-04T00:39:32.325Z,9.52
2022-08-04T00:42:32.213Z,8.38
2022-08-04T00:45:15.748Z,7.38
2022-08-04T00:47:56.269Z,6.55
2022-08-04T00:50:30.691Z,6.72
2022-08-04T00:53:07.898Z,5.13
2022-08-04T00:55:57.343Z,4.32
2022-08-04T00:58:47.593Z,4.20
2022-08-04T01:01:54.372Z,4.40
2022-08-04T01:04:50.047Z,6.60
2022-08-04T01:08:02.945Z,6.28
2022-08-04T01:13:39.576Z,4.95
2022-08-04T01:16:09.448Z,5.25
2022-08-04T01:19:22.656Z,5.28
2022-08-04T01:22:32.165Z,4.28
2022-08-04T01:25:44.727Z,4.43
2022-08-04T01:28:44.761Z,4.90
2022-08-04T01:31:30.956Z,3.53
2022-08-04T01:34:04.803Z,3.65
2022-08-04T01:36:35.165Z,4.93
2022-08-04T01:39:04.685Z,5.70
2022-08-04T01:41:33.333Z,5.03
2022-08-04T01:44:03.477Z,5.43
2022-08-04T01:46:35.914Z,4.95
2022-08-04T01:49:04.482Z,4.65
2022-08-04T01:51:34.307Z,4.20
2022-08-04T01:54:02.973Z,3.83
2022-08-04T01:56:32.180Z,5.38
2022-08-04T01:59:03.525Z,4.45
2022-08-04T02:01:37.717Z,4.90
2022-08-04T02:04:19.369Z,4.90
2022-08-04T02:07:03.061Z,4.40
2022-08-04T02:10:00.439Z,4.78
2022-08-04T02:12:43.694Z,4.10
2022-08-04T02:15:20.922Z,4.13
2022-08-04T02:18:26.029Z,4.00
2022-08-04T02:21:01.258Z,4.63
2022-08-04T02:23:31.753Z,4.57
2022-08-04T02:26:04.294Z,4.05
2022-08-04T02:28:49.297Z,4.28
2022-08-04T02:31:40.190Z,5.03
2022-08-04T02:34:23.537Z,5.03
2022-08-04T02:36:53.028Z,5.13
2022-08-04T02:39:23.564Z,5.25
2022-08-04T02:41:53.632Z,6.60
2022-08-04T02:44:24.066Z,6.65
2022-08-04T02:46:54.503Z,6.68
2022-08-04T02:49:23.728Z,6.05
2022-08-04T02:51:53.923Z,6.57
2022-08-04T02:54:33.674Z,7.75
2022-08-04T02:57:08.301Z,7.28
2022-08-04T03:00:07.371Z,7.78
2022-08-04T03:03:14.185Z,8.48
2022-08-04T03:06:06.468Z,9.05
2022-08-04T03:09:03.105Z,8.20
2022-08-04T03:12:13.822Z,7.82
2022-08-04T03:15:39.870Z,7.45
2022-08-04T03:18:24.491Z,7.40
2022-08-04T03:21:20.800Z,5.32
2022-08-04T03:24:20.653Z,4.63
2022-08-04T03:27:10.779Z,5.35
2022-08-04T03:29:57.422Z,5.50
2022-08-04T03:32:38.071Z,6.22
2022-08-04T03:35:13.608Z,5.55
2022-08-04T03:38:28.563Z,4.03
2022-08-04T03:41:51.809Z,4.30
2022-08-04T03:44:31.087Z,4.47
2022-08-04T03:47:19.570Z,4.75
2022-08-04T03:50:25.258Z,5.32
2022-08-04T03:53:18.187Z,4.65
2022-08-04T03:55:57.987Z,4.55
2022-08-04T03:58:54.063Z,4.47
2022-08-04T04:02:02.832Z,4.97
2022-08-04T04:04:50.278Z,4.88
2022-08-04T04:07:37.375Z,5.07
2022-08-04T04:10:56.362Z,5.43
2022-08-04T04:13:55.297Z,4.78
2022-08-04T04:16:45.962Z,4.60
2022-08-04T04:19:34.380Z,5.10
2022-08-04T04:22:30.994Z,4.85
2022-08-04T04:25:35.997Z,5.20
2022-08-04T04:28:45.434Z,4.70
2022-08-04T04:31:37.600Z,5.38
2022-08-04T04:34:47.027Z,5.72
2022-08-04T04:37:24.019Z,5.10
2022-08-04T04:40:10.357Z,4.25
2022-08-04T04:43:08.195Z,4.38
2022-08-04T04:46:05.806Z,5.03
2022-08-04T04:48:47.742Z,5.88
2022-08-04T04:51:29.612Z,5.65
2022-08-04T04:54:31.677Z,6.10
2022-08-04T04:57:15.387Z,5.97
2022-08-04T05:00:24.602Z,6.03
2022-08-04T05:03:16.975Z,5.68
2022-08-04T05:05:57.317Z,4.97
2022-08-04T05:08:47.437Z,5.13
2022-08-04T05:11:44.558Z,6.23
2022-08-04T05:14:41.460Z,6.00
2022-08-04T05:17:16.261Z,6.85
2022-08-04T05:20:01.224Z,6.70
2022-08-04T05:22:41.489Z,6.18
2022-08-04T05:25:14.865Z,5.78
2022-08-04T05:27:52.145Z,6.15
2022-08-04T05:30:21.609Z,7.55
2022-08-04T05:32:57.383Z,8.55
2022-08-04T05:36:17.000Z,3.85
2022-08-04T05:38:41.350Z,4.10
2022-08-04T05:41:10.948Z,4.05
2022-08-04T05:43:40.632Z,3.05
2022-08-04T05:46:11.692Z,3.90
2022-08-04T05:48:41.284Z,4.10
2022-08-04T05:51:11.637Z,4.60
2022-08-04T05:53:41.420Z,4.18
2022-08-04T05:56:10.922Z,5.30
2022-08-04T05:58:40.109Z,3.70
2022-08-04T06:01:11.281Z,3.53
2022-08-04T06:03:40.837Z,3.97
2022-08-04T06:06:11.084Z,4.07
2022-08-04T06:08:39.646Z,3.67
2022-08-04T06:11:12.452Z,4.57
2022-08-04T06:13:57.314Z,3.75
2022-08-04T06:16:30.830Z,4.25
2022-08-04T06:20:00.625Z,5.28
2022-08-04T06:21:54.585Z,5.05
2022-08-04T06:24:27.163Z,5.25
2022-08-04T06:26:56.910Z,4.63
2022-08-04T06:29:27.217Z,4.10
2022-08-04T06:32:31.689Z,4.53
2022-08-04T06:34:45.617Z,3.60
2022-08-04T06:37:43.090Z,4.30
2022-08-04T06:40:29.783Z,4.28
2022-08-04T06:42:54.295Z,5.70
2022-08-04T06:45:24.792Z,4.97
2022-08-04T06:47:55.164Z,5.22
2022-08-04T06:51:25.896Z,4.60
2022-08-04T06:53:13.283Z,4.53
2022-08-04T06:55:47.375Z,5.10
2022-08-04T06:58:17.812Z,5.50
2022-08-04T07:00:47.860Z,4.47
2022-08-04T07:03:19.517Z,4.65
2022-08-04T07:05:48.997Z,4.93
2022-08-04T07:08:17.808Z,5.13
2022-08-04T07:10:46.687Z,6.13
2022-08-04T07:13:15.103Z,5.65
2022-08-04T07:15:46.255Z,6.07
2022-08-04T07:18:14.796Z,5.75
2022-08-04T07:20:47.176Z,6.63
2022-08-04T07:23:16.774Z,5.57
2022-08-04T07:25:59.627Z,6.68
2022-08-04T07:28:39.969Z,6.03
2022-08-04T07:31:31.959Z,6.40
2022-08-04T07:34:17.769Z,6.63
2022-08-04T07:36:55.571Z,7.10
2022-08-04T07:39:28.488Z,6.13
2022-08-04T07:42:02.671Z,6.85
2022-08-04T07:44:32.895Z,7.95
2022-08-04T07:47:03.676Z,7.78
2022-08-04T07:49:55.999Z,7.40
2022-08-04T07:52:22.416Z,6.88
2022-08-04T07:54:51.051Z,7.25
2022-08-04T07:57:39.820Z,4.63
2022-08-04T08:00:09.199Z,4.97
2022-08-04T08:02:40.498Z,3.83
2022-08-04T08:05:11.496Z,4.20
2022-08-04T08:07:50.899Z,3.63
2022-08-04T08:10:24.159Z,4.80
2022-08-04T08:12:53.854Z,6.57
2022-08-04T08:15:22.900Z,6.38
2022-08-04T08:17:59.934Z,5.90
2022-08-04T08:20:33.297Z,5.68
2022-08-04T08:23:03.488Z,7.53
2022-08-04T08:25:33.781Z,5.55
2022-08-04T08:28:04.856Z,7.22
2022-08-04T08:30:34.889Z,7.40
2022-08-04T08:33:10.282Z,33.38
2022-08-04T08:36:04.745Z,8.20
2022-08-04T08:38:59.632Z,9.05
2022-08-04T08:41:30.803Z,6.25
2022-08-04T08:44:37.959Z,10.20
2022-08-04T08:47:27.883Z,7.03
2022-08-04T08:50:33.472Z,6.28
2022-08-04T08:53:17.549Z,6.18
2022-08-04T08:56:31.146Z,5.85
2022-08-04T08:59:02.766Z,4.82
2022-08-04T09:01:54.230Z,4.85
2022-08-04T09:04:37.708Z,5.57
2022-08-04T09:07:14.455Z,4.47
2022-08-04T09:09:54.453Z,5.30
2022-08-04T09:12:46.113Z,4.32
2022-08-04T09:15:23.297Z,5.10
2022-08-04T09:18:08.139Z,4.82
2022-08-04T09:20:46.068Z,4.78
2022-08-04T09:23:36.691Z,5.78
2022-08-04T09:26:20.580Z,5.30
2022-08-04T09:29:00.285Z,6.25
2022-08-04T09:31:49.019Z,5.40
2022-08-04T09:35:02.113Z,6.05
2022-08-04T09:37:54.115Z,4.20
2022-08-04T09:40:52.651Z,4.13
2022-08-04T09:43:59.299Z,4.13
2022-08-04T09:46:35.549Z,5.35
2022-08-04T09:49:13.249Z,5.40
2022-08-04T09:51:59.584Z,5.28
2022-08-04T09:54:52.269Z,5.00
2022-08-04T09:57:33.021Z,5.97
2022-08-04T10:00:12.512Z,6.32
2022-08-04T10:02:56.450Z,7.85
2022-08-04T10:05:33.737Z,7.03
2022-08-04T10:08:17.259Z,5.78
2022-08-04T10:10:55.667Z,5.38
2022-08-04T10:14:21.354Z,5.53
2022-08-04T10:16:57.368Z,5.85
2022-08-04T10:19:30.114Z,6.88
2022-08-04T10:22:27.673Z,12.98
2022-08-04T10:25:37.383Z,33.95
2022-08-04T10:28:20.217Z,9.48
2022-08-04T10:30:58.466Z,5.90
2022-08-04T10:33:31.902Z,6.97
2022-08-04T10:36:09.819Z,8.85
2022-08-04T10:39:42.204Z,7.07
2022-08-04T10:42:13.021Z,7.80
2022-08-04T10:45:06.720Z,9.60
2022-08-04T10:47:53.406Z,8.48
2022-08-04T10:50:25.530Z,9.27
2022-08-04T10:53:10.133Z,9.88
2022-08-04T10:56:07.612Z,8.90
2022-08-04T10:58:47.396Z,8.05
2022-08-04T11:05:57.752Z,6.65
2022-08-04T11:13:07.259Z,12.00
2022-08-04T11:15:56.034Z,7.30
2022-08-04T11:18:38.987Z,7.07
2022-08-04T11:21:29.504Z,6.32
2022-08-04T11:56:06.812Z,6.88
2022-08-04T11:58:30.905Z,6.63
2022-08-04T12:01:23.076Z,6.60
2022-08-04T12:03:59.718Z,7.32
2022-08-04T12:06:56.994Z,7.03
2022-08-04T12:09:55.360Z,6.43
2022-08-04T12:12:34.491Z,7.65
2022-08-04T12:15:05.925Z,7.28
2022-08-04T12:17:53.342Z,8.10
2022-08-04T12:20:31.954Z,6.03
2022-08-04T12:23:23.662Z,6.90
2022-08-04T12:25:56.935Z,7.90
2022-08-04T12:29:08.408Z,7.60
2022-08-04T12:31:47.818Z,6.38
2022-08-04T12:34:29.857Z,7.18
2022-08-04T12:37:27.492Z,5.90
2022-08-04T12:40:29.118Z,5.93
2022-08-04T12:43:21.633Z,6.32
2022-08-04T12:45:58.141Z,7.63
2022-08-04T12:48:28.181Z,7.15
2022-08-04T12:50:59.342Z,6.97
2022-08-04T12:53:35.343Z,8.07
2022-08-04T12:56:27.415Z,7.35
2022-08-04T12:59:04.668Z,6.70
2022-08-04T13:02:10.566Z,7.20
2022-08-04T13:04:29.524Z,6.80
2022-08-04T13:07:04.436Z,8.43
2022-08-04T13:09:35.939Z,6.30
2022-08-04T13:12:12.937Z,6.80
2022-08-04T13:14:43.976Z,7.50
2022-08-04T13:17:13.818Z,6.50
2022-08-04T13:19:53.236Z,6.43
2022-08-04T13:22:30.983Z,7.55
2022-08-04T13:25:18.248Z,6.82
2022-08-04T13:27:59.657Z,5.63
2022-08-04T13:30:31.498Z,5.78
2022-08-04T13:33:03.242Z,5.85
2022-08-04T13:35:55.912Z,6.35
2022-08-04T13:38:24.633Z,6.80
2022-08-04T13:40:53.906Z,7.68
2022-08-04T13:44:18.852Z,6.97
2022-08-04T13:46:51.020Z,7.75
2022-08-04T13:49:37.987Z,7.10
2022-08-04T13:52:11.364Z,7.43
2022-08-04T13:54:48.323Z,7.65
2022-08-04T13:57:30.111Z,6.75
2022-08-04T14:00:08.348Z,7.10
2022-08-04T14:02:53.112Z,7.55
2022-08-04T14:05:28.050Z,8.32
2022-08-04T14:08:16.066Z,8.10
2022-08-04T14:10:53.690Z,6.35
2022-08-04T14:13:41.567Z,6.60
2022-08-04T14:16:19.476Z,7.53
2022-08-04T14:18:49.005Z,7.15
2022-08-04T14:21:18.422Z,8.40
2022-08-04T14:23:56.299Z,6.75
2022-08-04T14:26:32.997Z,8.65
2022-08-04T14:29:28.393Z,8.57
2022-08-04T14:32:10.603Z,8.38
2022-08-04T14:34:45.955Z,7.90
2022-08-04T14:40:17.719Z,7.03
2022-08-04T14:42:54.430Z,7.38
2022-08-04T14:45:54.235Z,8.23
2022-08-04T14:48:23.727Z,8.48
2022-08-04T14:50:52.932Z,7.97
2022-08-04T14:53:23.864Z,8.43
2022-08-04T14:55:56.384Z,8.48
2022-08-04T14:58:34.926Z,7.38
2022-08-04T15:01:11.480Z,7.33
2022-08-04T15:03:50.058Z,7.75
2022-08-04T15:06:31.669Z,6.75
2022-08-04T15:09:07.027Z,7.32
2022-08-04T15:11:43.301Z,6.43
2022-08-04T15:14:36.240Z,7.70
2022-08-04T15:17:00.352Z,7.88
2022-08-04T15:19:29.086Z,7.25
2022-08-04T15:21:57.471Z,7.18
2022-08-04T15:24:26.306Z,7.55
2022-08-04T15:26:58.317Z,6.88
2022-08-04T15:30:00.237Z,6.32
2022-08-04T15:32:32.594Z,10.45
2022-08-04T15:35:05.623Z,6.20
2022-08-04T15:38:01.203Z,7.95
2022-08-04T15:40:44.573Z,8.60
2022-08-04T15:43:21.654Z,8.48
2022-08-04T15:46:32.940Z,7.05
2022-08-04T15:48:50.902Z,10.30
2022-08-04T15:51:30.436Z,7.28
2022-08-04T15:54:02.322Z,6.93
2022-08-04T15:56:33.311Z,6.45
2022-08-04T15:59:01.938Z,6.10
2022-08-04T16:01:30.524Z,6.70
2022-08-04T16:04:01.496Z,5.68
2022-08-04T16:06:30.636Z,5.18
2022-08-04T16:09:00.549Z,6.28
2022-08-04T16:11:32.281Z,7.88
2022-08-04T16:14:00.920Z,8.70
2022-08-04T16:16:39.627Z,8.23
2022-08-04T16:19:12.371Z,11.27
2022-08-04T16:21:58.543Z,9.30
2022-08-04T16:24:52.726Z,11.43
2022-08-04T16:30:10.728Z,13.88
2022-08-04T16:32:44.632Z,10.35
2022-08-04T16:36:37.585Z,9.88
2022-08-04T16:39:05.977Z,11.57
2022-08-04T16:41:44.539Z,10.07
2022-08-04T16:44:52.319Z,9.23
2022-08-04T16:47:48.712Z,9.35
2022-08-04T16:50:17.741Z,10.10
2022-08-04T16:52:51.266Z,7.35
2022-08-04T16:55:27.210Z,7.38
2022-08-04T16:57:58.202Z,7.13
2022-08-04T17:00:35.795Z,7.13
2022-08-04T17:03:09.797Z,6.43
2022-08-04T17:05:42.929Z,6.72
2022-08-04T17:10:59.933Z,6.57
2022-08-04T17:14:02.089Z,7.68
2022-08-04T17:16:19.595Z,8.52
2022-08-04T17:18:51.342Z,7.25
2022-08-04T17:21:26.182Z,8.10
2022-08-04T17:24:13.077Z,7.93
2022-08-04T17:26:54.045Z,9.70
2022-08-04T17:29:43.931Z,9.52
2022-08-04T17:32:17.638Z,9.45
2022-08-04T17:34:51.291Z,9.80
2022-08-04T17:37:41.218Z,10.57
2022-08-04T17:40:13.590Z,7.93
2022-08-04T17:42:42.439Z,9.68
2022-08-04T17:48:24.889Z,8.90
2022-08-04T17:50:53.639Z,9.88
2022-08-04T17:54:01.776Z,9.30
2022-08-04T17:56:52.006Z,9.98
2022-08-04T17:59:52.379Z,9.90
2022-08-04T18:02:34.763Z,9.90
2022-08-04T18:05:11.524Z,9.82
2022-08-04T18:08:39.191Z,10.65
2022-08-04T18:10:54.585Z,9.18
2022-08-04T18:13:28.944Z,8.73
2022-08-04T18:16:12.543Z,9.98
2022-08-04T18:19:09.174Z,9.63
2022-08-04T18:21:46.025Z,9.18
2022-08-04T18:24:35.503Z,8.75
2022-08-04T18:27:16.277Z,8.77
2022-08-04T18:29:56.422Z,10.10
2022-08-04T18:32:34.183Z,10.00
2022-08-04T18:35:05.005Z,9.55
2022-08-04T18:38:06.355Z,9.43
2022-08-04T18:40:36.774Z,11.50
2022-08-04T18:43:16.887Z,11.70
2022-08-04T18:45:57.351Z,11.23
2022-08-04T18:48:36.260Z,11.98
2022-08-04T18:51:23.102Z,14.23
2022-08-04T18:53:55.542Z,14.13
2022-08-04T18:56:32.699Z,15.63
2022-08-04T18:59:03.632Z,17.85
2022-08-04T19:02:17.278Z,24.38
2022-08-04T19:04:33.165Z,23.88
2022-08-04T19:07:24.624Z,15.02
2022-08-04T19:09:59.875Z,8.52
2022-08-04T19:12:29.083Z,6.70
2022-08-04T19:15:08.660Z,7.95
2022-08-04T19:17:57.110Z,7.35
2022-08-04T19:20:30.774Z,7.57
2022-08-04T19:24:10.352Z,8.80
2022-08-04T19:26:01.461Z,9.15
2022-08-04T19:28:35.513Z,9.90
2022-08-04T19:31:09.422Z,10.68
2022-08-04T19:33:59.642Z,10.93
2022-08-04T19:36:31.173Z,11.57
2022-08-04T19:39:02.086Z,12.15
2022-08-04T19:41:31.215Z,12.82
2022-08-04T19:43:59.481Z,12.75
2022-08-04T19:46:27.750Z,12.38
2022-08-04T19:48:59.424Z,13.20
2022-08-04T19:51:30.084Z,13.97
2022-08-04T19:54:02.905Z,14.50
2022-08-04T19:56:39.992Z,16.17
2022-08-04T19:59:12.981Z,17.75
2022-08-04T20:01:45.284Z,16.98
2022-08-04T20:04:15.382Z,17.50
2022-08-04T20:06:44.093Z,17.55
2022-08-04T20:09:24.637Z,19.83
2022-08-04T20:11:58.818Z,18.70
2022-08-04T20:14:31.636Z,17.25
2022-08-04T20:17:10.310Z,17.80
2022-08-04T20:19:40.005Z,18.33
2022-08-04T20:22:50.656Z,19.80
2022-08-04T20:25:18.316Z,19.23
2022-08-04T20:27:59.750Z,19.00
2022-08-04T20:30:30.995Z,20.75
2022-08-04T20:33:00.052Z,21.35
2022-08-04T20:35:29.123Z,23.33
2022-08-04T20:38:00.719Z,22.42
2022-08-04T20:40:30.582Z,20.85
2022-08-04T20:43:00.158Z,21.05
2022-08-04T20:45:55.794Z,22.17
2022-08-04T20:48:17.013Z,20.67
2022-08-04T20:50:46.514Z,20.55
2022-08-04T20:53:16.322Z,18.63
2022-08-04T20:58:34.860Z,18.75
2022-08-04T21:01:03.461Z,19.50
2022-08-04T21:03:38.421Z,19.58
2022-08-04T21:06:18.536Z,18.23
2022-08-04T21:08:57.058Z,17.58
2022-08-04T21:11:32.454Z,18.58
2022-08-04T21:14:02.094Z,19.15
2022-08-04T21:16:54.117Z,19.20
2022-08-04T21:19:24.557Z,19.27
2022-08-04T21:21:55.416Z,18.98
2022-08-04T21:24:26.447Z,18.98
2022-08-04T21:26:57.922Z,18.92
2022-08-04T21:29:34.794Z,19.50
2022-08-04T21:32:08.009Z,19.30
2022-08-04T21:34:38.986Z,18.63
2022-08-04T21:37:11.908Z,18.25
2022-08-04T21:39:50.015Z,17.27
2022-08-04T21:42:28.411Z,17.77
2022-08-04T21:45:08.757Z,18.58
2022-08-04T21:47:46.198Z,22.95
2022-08-04T21:50:19.947Z,24.98
2022-08-04T21:52:50.005Z,23.45
2022-08-04T21:55:19.354Z,22.48
2022-08-04T21:57:49.310Z,20.58
2022-08-04T22:00:19.708Z,21.85
2022-08-04T22:02:52.956Z,23.00
2022-08-04T22:05:22.784Z,21.95
2022-08-04T22:07:52.496Z,22.00
2022-08-04T22:10:32.207Z,19.33
2022-08-04T22:13:06.986Z,20.55
2022-08-04T22:21:13.397Z,26.13
2022-08-04T22:23:45.062Z,24.67
2022-08-04T22:26:20.209Z,26.90
2022-08-04T22:28:56.658Z,27.50
2022-08-04T22:31:25.782Z,25.73
2022-08-04T22:33:56.155Z,25.55
2022-08-04T22:36:25.130Z,28.73
2022-08-04T22:39:04.550Z,28.77
2022-08-04T22:41:48.496Z,26.23
2022-08-04T22:44:24.006Z,25.98
2022-08-04T22:46:57.999Z,25.67
2022-08-04T22:49:31.672Z,24.23
2022-08-04T22:52:02.897Z,22.30
2022-08-04T22:54:38.457Z,19.50
2022-08-04T22:57:09.612Z,18.27
2022-08-04T22:59:42.888Z,17.73
2022-08-04T23:02:11.678Z,15.18
2022-08-04T23:04:43.321Z,15.55
2022-08-04T23:07:12.757Z,14.73
2022-08-04T23:09:51.129Z,14.82
2022-08-04T23:12:25.973Z,15.85
2022-08-04T23:14:56.489Z,13.45
2022-08-04T23:17:27.250Z,12.93
2022-08-04T23:19:59.190Z,14.80
2022-08-04T23:25:16.983Z,14.38
2022-08-04T23:27:51.578Z,13.25
2022-08-04T23:30:29.458Z,14.18
2022-08-04T23:32:59.084Z,12.80
2022-08-04T23:35:27.708Z,12.85
2022-08-04T23:37:58.065Z,12.23
2022-08-04T23:40:33.218Z,12.32
2022-08-04T23:43:17.522Z,12.27
2022-08-04T23:46:07.212Z,12.30
2022-08-04T23:48:39.125Z,13.07
2022-08-04T23:51:13.645Z,12.68
2022-08-04T23:54:02.116Z,12.73
2022-08-04T23:56:34.381Z,12.77
2022-08-04T23:59:04.636Z,12.38
